createdAt,value
2023-01-19T00:00:32.226Z,9.13
2023-01-19T00:02:35.177Z,8.48
2023-01-19T00:04:37.944Z,8.68
2023-01-19T00:06:40.765Z,8.50
2023-01-19T00:08:45.936Z,8.65
2023-01-19T00:10:51.042Z,7.97
2023-01-19T00:12:53.768Z,8.65
2023-01-19T00:14:56.510Z,8.88
2023-01-19T00:16:59.594Z,8.85
2023-01-19T00:19:02.647Z,8.45
2023-01-19T00:21:05.584Z,9.10
2023-01-19T00:23:09.511Z,8.88
2023-01-19T00:25:13.645Z,8.25
2023-01-19T00:27:16.404Z,8.38
2023-01-19T00:29:20.333Z,9.25
2023-01-19T00:31:23.396Z,9.25
2023-01-19T00:33:26.239Z,9.80
2023-01-19T00:35:29.712Z,8.95
2023-01-19T00:37:32.507Z,9.65
2023-01-19T00:39:35.460Z,8.98
2023-01-19T00:41:57.252Z,9.32
2023-01-19T00:44:00.765Z,9.65
2023-01-19T00:46:03.532Z,9.15
2023-01-19T00:48:07.373Z,9.27
2023-01-19T00:50:12.544Z,8.77
2023-01-19T00:52:15.233Z,9.60
2023-01-19T00:54:18.190Z,9.95
2023-01-19T00:56:20.886Z,9.32
2023-01-19T00:58:24.878Z,8.43
2023-01-19T01:00:27.696Z,8.77
2023-01-19T01:02:30.502Z,9.07
2023-01-19T01:04:33.381Z,9.23
2023-01-19T01:06:36.082Z,9.25
2023-01-19T01:08:38.724Z,8.40
2023-01-19T01:10:41.397Z,9.38
2023-01-19T01:12:56.304Z,9.00
2023-01-19T01:15:03.255Z,9.25
2023-01-19T01:17:05.929Z,8.63
2023-01-19T01:19:08.733Z,8.32
2023-01-19T01:21:13.583Z,9.30
2023-01-19T01:23:16.330Z,9.10
2023-01-19T01:25:22.475Z,9.35
2023-01-19T01:27:25.237Z,9.40
2023-01-19T01:29:28.012Z,8.82
2023-01-19T01:31:32.188Z,8.85
2023-01-19T01:33:41.011Z,8.07
2023-01-19T01:35:44.597Z,8.23
2023-01-19T01:37:47.318Z,8.07
2023-01-19T01:39:49.986Z,9.15
2023-01-19T01:41:52.692Z,8.07
2023-01-19T01:44:01.704Z,8.25
2023-01-19T01:46:04.638Z,8.80
2023-01-19T01:48:13.307Z,8.35
2023-01-19T01:50:19.155Z,8.50
2023-01-19T01:52:26.382Z,8.30
2023-01-19T01:54:33.002Z,9.20
2023-01-19T01:56:38.518Z,8.57
2023-01-19T01:58:42.064Z,8.65
2023-01-19T02:01:02.649Z,7.90
2023-01-19T02:03:05.521Z,7.80
2023-01-19T02:05:12.503Z,7.55
2023-01-19T02:07:39.218Z,8.35
2023-01-19T02:09:59.668Z,8.40
2023-01-19T02:12:20.095Z,7.63
2023-01-19T02:14:22.870Z,7.85
2023-01-19T02:16:25.735Z,8.10
2023-01-19T02:18:30.354Z,9.07
2023-01-19T02:20:37.569Z,11.05
2023-01-19T02:22:48.668Z,44.80
2023-01-19T02:24:52.981Z,59.75
2023-01-19T02:26:57.209Z,25.45
2023-01-19T02:29:01.937Z,13.93
2023-01-19T02:31:04.905Z,9.27
2023-01-19T02:33:07.842Z,7.78
2023-01-19T02:35:11.789Z,7.82
2023-01-19T02:37:18.447Z,8.48
2023-01-19T02:39:24.926Z,8.25
2023-01-19T02:41:32.438Z,7.70
2023-01-19T02:43:37.127Z,8.75
2023-01-19T02:45:40.516Z,8.63
2023-01-19T02:47:46.122Z,7.72
2023-01-19T02:49:56.176Z,7.95
2023-01-19T02:52:01.019Z,8.25
2023-01-19T02:54:31.568Z,8.02
2023-01-19T02:56:50.932Z,7.90
2023-01-19T02:59:02.405Z,7.32
2023-01-19T03:01:14.115Z,7.90
2023-01-19T03:03:30.597Z,8.07
2023-01-19T03:05:49.284Z,7.95
2023-01-19T03:08:00.142Z,8.55
2023-01-19T03:10:08.255Z,8.57
2023-01-19T03:12:20.944Z,8.93
2023-01-19T03:14:29.600Z,8.27
2023-01-19T03:16:40.764Z,7.47
2023-01-19T03:18:47.187Z,8.30
2023-01-19T03:20:53.495Z,7.93
2023-01-19T03:23:02.891Z,8.23
2023-01-19T03:25:07.856Z,7.78
2023-01-19T03:27:15.851Z,8.73
2023-01-19T03:29:20.748Z,8.15
2023-01-19T03:31:27.309Z,8.23
2023-01-19T03:33:34.376Z,7.93
2023-01-19T03:35:40.969Z,7.90
2023-01-19T03:37:46.518Z,8.90
2023-01-19T03:39:49.279Z,9.00
2023-01-19T03:41:55.949Z,9.50
2023-01-19T03:44:00.411Z,8.57
2023-01-19T03:46:04.477Z,8.55
2023-01-19T03:48:08.442Z,9.25
2023-01-19T03:50:19.334Z,8.23
2023-01-19T03:52:29.125Z,8.65
2023-01-19T03:54:32.854Z,12.25
2023-01-19T03:56:35.599Z,10.20
2023-01-19T03:58:38.311Z,9.48
2023-01-19T04:00:42.559Z,10.70
2023-01-19T04:02:45.285Z,8.85
2023-01-19T04:04:48.021Z,8.18
2023-01-19T04:06:50.773Z,8.35
2023-01-19T04:08:53.905Z,8.02
2023-01-19T04:10:58.385Z,8.85
2023-01-19T04:13:02.555Z,8.30
2023-01-19T04:15:06.517Z,9.00
2023-01-19T04:17:10.617Z,8.98
2023-01-19T04:19:13.421Z,9.07
2023-01-19T04:21:16.558Z,9.93
2023-01-19T04:23:19.255Z,8.85
2023-01-19T04:25:22.381Z,9.20
2023-01-19T04:27:26.043Z,8.57
2023-01-19T04:29:28.738Z,9.45
2023-01-19T04:31:31.520Z,9.43
2023-01-19T04:33:36.291Z,10.52
2023-01-19T04:35:38.973Z,10.30
2023-01-19T04:37:41.677Z,9.23
2023-01-19T04:39:44.629Z,9.30
2023-01-19T04:41:47.552Z,9.20
2023-01-19T04:43:50.277Z,9.88
2023-01-19T04:45:53.143Z,10.73
2023-01-19T04:47:55.842Z,10.68
2023-01-19T04:49:59.886Z,10.27
2023-01-19T04:52:02.615Z,9.95
2023-01-19T04:54:05.344Z,12.30
2023-01-19T04:56:08.431Z,11.63
2023-01-19T04:58:11.176Z,11.35
2023-01-19T05:00:14.677Z,10.05
2023-01-19T05:02:17.628Z,16.10
2023-01-19T05:04:22.355Z,16.30
2023-01-19T05:06:26.508Z,10.40
2023-01-19T05:08:29.244Z,9.82
2023-01-19T05:10:31.953Z,16.02
2023-01-19T05:12:34.946Z,13.65
2023-01-19T05:14:37.729Z,18.13
2023-01-19T05:16:40.438Z,17.40
2023-01-19T05:18:43.158Z,15.32
2023-01-19T05:20:45.843Z,13.00
2023-01-19T05:22:53.758Z,12.50
2023-01-19T05:24:56.492Z,9.60
2023-01-19T05:26:59.315Z,10.68
2023-01-19T05:29:01.987Z,11.25
2023-01-19T05:31:04.983Z,10.80
2023-01-19T05:33:07.817Z,11.07
2023-01-19T05:35:11.237Z,13.38
2023-01-19T05:37:14.037Z,12.80
2023-01-19T05:39:18.284Z,11.52
2023-01-19T05:41:21.013Z,10.00
2023-01-19T05:43:25.239Z,10.02
2023-01-19T05:45:28.280Z,9.60
2023-01-19T05:47:31.396Z,8.65
2023-01-19T05:49:35.374Z,8.52
2023-01-19T05:51:38.945Z,8.68
2023-01-19T05:53:41.744Z,8.48
2023-01-19T05:55:45.795Z,8.98
2023-01-19T05:57:48.642Z,8.55
2023-01-19T05:59:51.383Z,8.18
2023-01-19T06:01:54.942Z,8.40
2023-01-19T06:03:58.200Z,8.45
2023-01-19T06:06:01.620Z,8.45
2023-01-19T06:08:04.361Z,8.15
2023-01-19T06:10:08.433Z,8.18
2023-01-19T06:12:12.523Z,7.95
2023-01-19T06:14:15.616Z,8.30
2023-01-19T06:16:18.484Z,8.40
2023-01-19T06:18:21.407Z,9.45
2023-01-19T06:20:24.147Z,11.48
2023-01-19T06:22:26.863Z,15.40
2023-01-19T06:24:29.674Z,22.27
2023-01-19T06:26:32.454Z,19.80
2023-01-19T06:28:36.538Z,18.27
2023-01-19T06:30:39.287Z,10.82
2023-01-19T06:32:42.072Z,8.95
2023-01-19T06:34:44.845Z,10.32
2023-01-19T06:36:47.621Z,11.05
2023-01-19T06:38:50.323Z,9.70
2023-01-19T06:40:54.851Z,10.52
2023-01-19T06:42:57.541Z,10.55
2023-01-19T06:45:01.590Z,13.38
2023-01-19T06:47:15.164Z,10.30
2023-01-19T06:49:18.818Z,10.55
2023-01-19T06:51:21.672Z,15.95
2023-01-19T06:53:24.345Z,20.52
2023-01-19T06:55:27.686Z,14.77
2023-01-19T06:57:30.686Z,12.43
2023-01-19T06:59:33.649Z,14.88
2023-01-19T07:01:37.772Z,12.38
2023-01-19T07:03:40.520Z,10.35
2023-01-19T07:05:43.249Z,9.27
2023-01-19T07:07:46.098Z,8.65
2023-01-19T07:09:48.754Z,8.40
2023-01-19T07:11:51.415Z,7.93
2023-01-19T07:13:56.003Z,8.45
2023-01-19T07:15:58.865Z,7.85
2023-01-19T07:18:07.480Z,7.82
2023-01-19T07:20:13.074Z,7.28
2023-01-19T07:22:15.760Z,6.82
2023-01-19T07:24:18.459Z,6.43
2023-01-19T07:26:22.157Z,6.63
2023-01-19T07:28:24.931Z,7.05
2023-01-19T07:30:27.874Z,7.20
2023-01-19T07:32:30.627Z,8.10
2023-01-19T07:34:35.948Z,8.05
2023-01-19T07:36:38.971Z,7.63
2023-01-19T07:38:43.026Z,7.53
2023-01-19T07:40:46.898Z,7.18
2023-01-19T07:42:50.623Z,7.70
2023-01-19T07:44:53.407Z,8.63
2023-01-19T07:46:56.368Z,13.63
2023-01-19T07:48:59.071Z,10.50
2023-01-19T07:51:06.136Z,8.82
2023-01-19T07:53:11.690Z,9.57
2023-01-19T07:55:14.482Z,14.95
2023-01-19T07:57:17.240Z,14.57
2023-01-19T07:59:19.914Z,15.13
2023-01-19T08:01:23.673Z,12.00
2023-01-19T08:03:26.546Z,15.70
2023-01-19T08:05:29.922Z,13.32
2023-01-19T08:07:34.324Z,10.48
2023-01-19T08:09:37.031Z,7.28
2023-01-19T08:11:40.304Z,7.47
2023-01-19T08:13:43.240Z,10.10
2023-01-19T08:15:46.283Z,8.68
2023-01-19T08:17:55.992Z,8.70
2023-01-19T08:19:58.919Z,9.40
2023-01-19T08:22:07.758Z,8.20
2023-01-19T08:24:21.392Z,6.90
2023-01-19T08:26:29.719Z,8.73
2023-01-19T08:28:32.439Z,9.48
2023-01-19T08:30:35.600Z,6.45
2023-01-19T08:32:38.282Z,6.03
2023-01-19T08:34:40.978Z,8.23
2023-01-19T08:36:43.699Z,8.90
2023-01-19T08:38:46.679Z,7.18
2023-01-19T08:40:50.704Z,6.63
2023-01-19T08:42:53.501Z,7.15
2023-01-19T08:44:58.820Z,6.53
2023-01-19T08:47:08.979Z,6.57
2023-01-19T08:49:11.733Z,8.18
2023-01-19T08:51:15.230Z,7.65
2023-01-19T08:53:19.180Z,9.77
2023-01-19T08:55:21.896Z,7.05
2023-01-19T08:57:25.920Z,6.85
2023-01-19T08:59:28.628Z,8.05
2023-01-19T09:01:31.475Z,8.27
2023-01-19T09:03:34.358Z,7.60
2023-01-19T09:05:38.937Z,6.68
2023-01-19T09:07:42.639Z,6.63
2023-01-19T09:09:45.290Z,6.60
2023-01-19T09:11:47.950Z,6.50
2023-01-19T09:13:52.134Z,5.97
2023-01-19T09:15:55.314Z,6.63
2023-01-19T09:17:58.374Z,6.22
2023-01-19T09:20:01.506Z,5.68
2023-01-19T09:22:04.314Z,5.53
2023-01-19T09:24:07.441Z,7.07
2023-01-19T09:26:11.186Z,6.72
2023-01-19T09:28:15.988Z,5.70
2023-01-19T09:30:20.873Z,5.72
2023-01-19T09:32:23.904Z,6.72
2023-01-19T09:34:26.668Z,7.38
2023-01-19T09:36:30.124Z,7.63
2023-01-19T09:38:33.292Z,7.60
2023-01-19T09:40:37.421Z,6.57
2023-01-19T09:42:44.440Z,7.18
2023-01-19T09:44:48.926Z,14.75
2023-01-19T09:46:52.948Z,8.35
2023-01-19T09:48:58.332Z,6.05
2023-01-19T09:51:03.900Z,6.28
2023-01-19T09:53:17.215Z,6.32
2023-01-19T09:55:23.692Z,6.93
2023-01-19T09:57:27.880Z,6.15
2023-01-19T09:59:31.883Z,6.00
2023-01-19T10:01:50.107Z,5.25
2023-01-19T10:04:10.683Z,6.13
2023-01-19T10:06:15.328Z,5.47
2023-01-19T10:08:26.375Z,5.40
2023-01-19T10:10:31.662Z,5.90
2023-01-19T10:12:50.995Z,5.50
2023-01-19T10:15:03.665Z,5.43
2023-01-19T10:17:19.148Z,5.60
2023-01-19T10:19:28.535Z,5.45
2023-01-19T10:21:38.073Z,5.78
2023-01-19T10:23:44.026Z,6.88
2023-01-19T10:25:48.020Z,5.60
2023-01-19T10:27:50.875Z,6.32
2023-01-19T10:29:53.653Z,5.88
2023-01-19T10:32:05.004Z,5.25
2023-01-19T10:34:07.744Z,5.20
2023-01-19T10:36:20.168Z,5.18
2023-01-19T10:38:22.945Z,5.65
2023-01-19T10:40:31.956Z,5.15
2023-01-19T10:42:41.137Z,6.60
2023-01-19T10:44:46.935Z,8.07
2023-01-19T10:46:51.393Z,6.45
2023-01-19T10:48:56.717Z,5.47
2023-01-19T10:51:03.729Z,6.38
2023-01-19T10:53:21.577Z,4.95
2023-01-19T10:55:28.521Z,5.95
2023-01-19T10:57:34.477Z,6.03
2023-01-19T10:59:39.041Z,11.63
2023-01-19T11:01:41.908Z,10.65
2023-01-19T11:03:45.137Z,7.05
2023-01-19T11:05:48.568Z,5.55
2023-01-19T11:07:51.461Z,5.50
2023-01-19T11:10:21.122Z,6.45
2023-01-19T11:12:25.365Z,5.60
2023-01-19T11:14:32.240Z,6.68
2023-01-19T11:16:38.080Z,6.22
2023-01-19T11:18:42.065Z,5.65
2023-01-19T11:20:51.784Z,6.57
2023-01-19T11:23:06.110Z,5.60
2023-01-19T11:25:27.099Z,4.38
2023-01-19T11:27:32.429Z,5.13
2023-01-19T11:29:35.393Z,4.63
2023-01-19T11:31:38.171Z,5.22
2023-01-19T11:33:44.223Z,5.28
2023-01-19T11:35:47.211Z,4.18
2023-01-19T11:37:50.063Z,4.18
2023-01-19T11:39:54.522Z,4.40
2023-01-19T11:42:02.143Z,4.07
2023-01-19T11:44:17.116Z,4.38
2023-01-19T11:46:21.518Z,4.70
2023-01-19T11:48:30.915Z,4.28
2023-01-19T11:50:37.528Z,3.65
2023-01-19T11:52:45.627Z,3.75
2023-01-19T11:54:55.661Z,3.90
2023-01-19T11:57:02.221Z,3.63
2023-01-19T11:59:05.228Z,4.05
2023-01-19T12:01:17.347Z,3.90
2023-01-19T12:03:24.686Z,3.88
2023-01-19T12:05:32.719Z,3.60
2023-01-19T12:07:37.446Z,3.70
2023-01-19T12:09:44.259Z,4.72
2023-01-19T12:11:51.937Z,3.13
2023-01-19T12:13:56.118Z,3.45
2023-01-19T12:16:02.236Z,3.25
2023-01-19T12:18:07.842Z,3.30
2023-01-19T12:20:25.978Z,3.35
2023-01-19T12:22:30.285Z,3.08
2023-01-19T12:24:38.224Z,3.22
2023-01-19T12:26:49.773Z,3.58
2023-01-19T12:28:54.209Z,3.30
2023-01-19T12:30:59.675Z,3.17
2023-01-19T12:33:21.640Z,3.00
2023-01-19T12:35:56.333Z,2.75
2023-01-19T12:37:59.020Z,3.10
2023-01-19T12:40:05.485Z,3.35
2023-01-19T12:42:14.620Z,3.20
2023-01-19T12:44:27.732Z,3.40
2023-01-19T12:46:32.536Z,3.33
2023-01-19T12:48:35.323Z,3.22
2023-01-19T12:50:39.789Z,3.20
2023-01-19T12:52:51.376Z,3.13
2023-01-19T12:54:59.543Z,3.55
2023-01-19T12:57:05.848Z,3.15
2023-01-19T12:59:21.073Z,3.65
2023-01-19T13:01:24.883Z,3.38
2023-01-19T13:04:06.638Z,3.03
2023-01-19T13:06:09.599Z,3.67
2023-01-19T13:08:26.113Z,3.90
2023-01-19T13:10:54.050Z,3.20
2023-01-19T13:13:19.599Z,3.47
2023-01-19T13:15:36.399Z,3.50
2023-01-19T13:17:50.200Z,3.35
2023-01-19T13:20:06.796Z,5.28
2023-01-19T13:22:58.041Z,5.30
2023-01-19T13:25:09.473Z,3.83
2023-01-19T13:27:14.185Z,5.05
2023-01-19T13:29:22.033Z,3.92
2023-01-19T13:31:26.063Z,3.65
2023-01-19T13:33:38.040Z,3.58
2023-01-19T13:35:52.252Z,3.50
2023-01-19T13:37:55.092Z,2.90
2023-01-19T13:39:58.257Z,3.30
2023-01-19T13:42:03.687Z,3.13
2023-01-19T13:44:13.875Z,3.33
2023-01-19T13:46:17.387Z,3.13
2023-01-19T13:48:23.142Z,3.65
2023-01-19T13:50:27.220Z,4.40
2023-01-19T13:52:31.880Z,3.22
2023-01-19T13:54:34.715Z,3.00
2023-01-19T13:56:37.428Z,3.13
2023-01-19T13:58:40.183Z,3.15
2023-01-19T14:00:47.211Z,3.65
2023-01-19T14:02:56.993Z,3.30
2023-01-19T14:04:59.799Z,2.90
2023-01-19T14:07:05.821Z,2.97
2023-01-19T14:09:20.627Z,3.25
2023-01-19T14:11:23.381Z,3.08
2023-01-19T14:13:29.584Z,4.05
2023-01-19T14:15:34.860Z,3.60
2023-01-19T14:17:37.697Z,2.97
2023-01-19T14:19:50.050Z,3.70
2023-01-19T14:22:00.727Z,3.58
2023-01-19T14:24:09.584Z,3.40
2023-01-19T14:26:56.280Z,3.60
2023-01-19T14:29:08.883Z,3.15
2023-01-19T14:31:22.562Z,3.40
2023-01-19T14:33:35.820Z,3.00
2023-01-19T14:35:38.597Z,2.88
2023-01-19T14:37:47.990Z,2.72
2023-01-19T14:39:53.304Z,3.00
2023-01-19T14:41:58.905Z,2.90
2023-01-19T14:44:03.525Z,3.60
2023-01-19T14:46:06.273Z,2.72
2023-01-19T14:48:18.306Z,2.75
2023-01-19T14:50:25.463Z,2.95
2023-01-19T14:52:31.103Z,3.35
2023-01-19T14:54:37.030Z,3.45
2023-01-19T14:56:39.746Z,3.67
2023-01-19T14:58:42.467Z,5.35
2023-01-19T15:00:48.174Z,3.67
2023-01-19T15:02:50.933Z,2.97
2023-01-19T15:04:55.417Z,3.20
2023-01-19T15:06:58.418Z,5.63
2023-01-19T15:09:01.155Z,7.43
2023-01-19T15:11:10.717Z,6.63
2023-01-19T15:13:19.343Z,4.18
2023-01-19T15:15:25.917Z,3.58
2023-01-19T15:17:30.026Z,4.47
2023-01-19T15:19:32.693Z,4.75
2023-01-19T15:21:35.401Z,6.07
2023-01-19T15:23:38.102Z,4.30
2023-01-19T15:25:41.025Z,3.20
2023-01-19T15:27:44.066Z,3.70
2023-01-19T15:29:46.808Z,4.10
2023-01-19T15:31:49.715Z,4.50
2023-01-19T15:33:53.959Z,4.20
2023-01-19T15:35:56.796Z,3.38
2023-01-19T15:37:59.518Z,3.92
2023-01-19T15:40:02.223Z,3.60
2023-01-19T15:42:04.943Z,3.58
2023-01-19T15:44:09.114Z,3.40
2023-01-19T15:46:15.507Z,4.13
2023-01-19T15:48:19.906Z,4.50
2023-01-19T15:50:25.638Z,3.90
2023-01-19T15:52:28.302Z,4.35
2023-01-19T15:54:31.207Z,3.63
2023-01-19T15:56:33.931Z,4.18
2023-01-19T15:58:36.676Z,3.90
2023-01-19T16:00:39.462Z,5.78
2023-01-19T16:02:42.412Z,5.45
2023-01-19T16:04:49.393Z,5.65
2023-01-19T16:06:53.481Z,5.72
2023-01-19T16:08:59.703Z,5.00
2023-01-19T16:11:05.988Z,5.38
2023-01-19T16:13:09.460Z,4.47
2023-01-19T16:15:12.773Z,4.72
2023-01-19T16:17:15.481Z,5.13
2023-01-19T16:19:19.158Z,5.13
2023-01-19T16:21:22.124Z,4.30
2023-01-19T16:23:26.549Z,4.55
2023-01-19T16:25:30.934Z,5.30
2023-01-19T16:27:33.676Z,8.48
2023-01-19T16:29:36.378Z,7.60
2023-01-19T16:31:40.272Z,4.72
2023-01-19T16:33:43.746Z,5.47
2023-01-19T16:35:46.600Z,5.03
2023-01-19T16:37:52.214Z,5.82
2023-01-19T16:39:56.317Z,5.00
2023-01-19T16:41:59.139Z,5.60
2023-01-19T16:44:02.311Z,4.68
2023-01-19T16:46:05.142Z,4.70
2023-01-19T16:48:08.152Z,4.15
2023-01-19T16:50:12.550Z,4.63
2023-01-19T16:52:15.666Z,8.68
2023-01-19T16:54:20.727Z,10.70
2023-01-19T16:56:25.220Z,13.82
2023-01-19T16:58:27.911Z,9.68
2023-01-19T17:00:30.574Z,12.98
2023-01-19T17:02:33.373Z,9.55
2023-01-19T17:04:36.281Z,11.75
2023-01-19T17:06:39.311Z,12.95
2023-01-19T17:08:42.395Z,9.70
2023-01-19T17:10:45.079Z,9.45
2023-01-19T17:12:49.138Z,16.35
2023-01-19T17:14:51.791Z,12.00
2023-01-19T17:16:54.502Z,7.57
2023-01-19T17:18:58.536Z,11.50
2023-01-19T17:21:02.602Z,7.22
2023-01-19T17:23:05.265Z,6.65
2023-01-19T17:25:09.024Z,7.32
2023-01-19T17:27:11.806Z,6.70
2023-01-19T17:29:16.615Z,7.15
2023-01-19T17:31:21.219Z,9.15
2023-01-19T17:33:25.430Z,8.55
2023-01-19T17:35:28.132Z,10.00
2023-01-19T17:37:30.782Z,9.63
2023-01-19T17:39:33.465Z,8.13
2023-01-19T17:41:37.001Z,7.40
2023-01-19T17:43:39.638Z,7.20
2023-01-19T17:45:43.747Z,8.90
2023-01-19T17:47:50.097Z,7.85
2023-01-19T17:49:52.797Z,7.18
2023-01-19T17:51:55.802Z,6.18
2023-01-19T17:53:59.350Z,5.47
2023-01-19T17:56:04.779Z,5.53
2023-01-19T17:58:07.424Z,6.28
2023-01-19T18:00:11.664Z,6.93
2023-01-19T18:02:19.047Z,7.22
2023-01-19T18:04:21.805Z,7.07
2023-01-19T18:06:24.851Z,6.25
2023-01-19T18:08:27.583Z,6.50
2023-01-19T18:10:30.236Z,5.63
2023-01-19T18:12:33.256Z,8.80
2023-01-19T18:14:35.936Z,8.40
2023-01-19T18:16:38.647Z,6.80
2023-01-19T18:18:44.029Z,7.22
2023-01-19T18:20:46.725Z,7.20
2023-01-19T18:22:49.383Z,73.18
2023-01-19T18:24:52.227Z,55.80
2023-01-19T18:26:55.774Z,31.05
2023-01-19T18:28:59.513Z,18.30
2023-01-19T18:31:02.742Z,18.17
2023-01-19T18:33:06.236Z,20.60
2023-01-19T18:35:10.942Z,21.15
2023-01-19T18:37:13.668Z,23.30
2023-01-19T18:39:16.401Z,20.98
2023-01-19T18:41:20.621Z,19.05
2023-01-19T18:43:23.305Z,19.30
2023-01-19T18:45:26.080Z,21.73
2023-01-19T18:47:28.813Z,23.52
2023-01-19T18:49:31.481Z,23.30
2023-01-19T18:51:36.644Z,26.48
2023-01-19T18:53:39.497Z,23.20
2023-01-19T18:55:51.960Z,22.30
2023-01-19T18:57:54.880Z,22.08
2023-01-19T18:59:57.573Z,19.85
2023-01-19T19:02:01.457Z,20.80
2023-01-19T19:04:04.290Z,20.25
2023-01-19T19:06:07.428Z,22.23
2023-01-19T19:08:11.590Z,25.63
2023-01-19T19:10:14.710Z,27.50
2023-01-19T19:12:17.807Z,22.80
2023-01-19T19:14:20.478Z,23.13
2023-01-19T19:16:23.265Z,21.00
2023-01-19T19:18:26.178Z,19.17
2023-01-19T19:20:28.806Z,14.43
2023-01-19T19:22:32.412Z,16.42
2023-01-19T19:24:36.425Z,18.85
2023-01-19T19:26:39.102Z,22.85
2023-01-19T19:28:42.172Z,19.15
2023-01-19T19:30:44.887Z,18.13
2023-01-19T19:32:52.988Z,16.83
2023-01-19T19:34:58.062Z,16.13
2023-01-19T19:37:01.406Z,21.02
2023-01-19T19:39:04.244Z,43.92
2023-01-19T19:41:09.595Z,41.85
2023-01-19T19:43:12.751Z,35.75
2023-01-19T19:45:16.596Z,40.85
2023-01-19T19:47:19.702Z,39.53
2023-01-19T19:49:22.351Z,12.82
2023-01-19T19:51:27.070Z,11.98
2023-01-19T19:53:29.777Z,16.85
2023-01-19T19:55:32.434Z,14.68
2023-01-19T19:57:36.933Z,22.30
2023-01-19T19:59:39.579Z,21.15
2023-01-19T20:01:43.798Z,26.60
2023-01-19T20:03:46.751Z,24.95
2023-01-19T20:05:49.422Z,19.75
2023-01-19T20:07:52.100Z,10.20
2023-01-19T20:09:55.014Z,7.80
2023-01-19T20:11:57.739Z,7.97
2023-01-19T20:14:05.755Z,8.75
2023-01-19T20:16:11.120Z,8.55
2023-01-19T20:18:14.281Z,8.65
2023-01-19T20:20:17.267Z,8.32
2023-01-19T20:22:19.945Z,7.15
2023-01-19T20:24:22.587Z,7.60
2023-01-19T20:26:27.448Z,7.30
2023-01-19T20:28:30.062Z,7.55
2023-01-19T20:30:34.213Z,8.10
2023-01-19T20:32:40.073Z,8.45
2023-01-19T20:34:42.741Z,7.80
2023-01-19T20:36:49.447Z,8.07
2023-01-19T20:38:52.925Z,25.33
2023-01-19T20:40:55.594Z,57.38
2023-01-19T20:42:58.229Z,9.55
2023-01-19T20:45:00.875Z,10.15
2023-01-19T20:47:06.659Z,7.82
2023-01-19T20:49:10.142Z,8.73
2023-01-19T20:51:14.312Z,7.40
2023-01-19T20:53:17.481Z,8.30
2023-01-19T20:55:20.213Z,12.32
2023-01-19T20:57:22.878Z,12.35
2023-01-19T20:59:25.624Z,12.13
2023-01-19T21:01:28.372Z,11.50
2023-01-19T21:03:34.737Z,11.60
2023-01-19T21:05:37.783Z,13.38
2023-01-19T21:07:40.675Z,12.70
2023-01-19T21:09:43.409Z,13.10
2023-01-19T21:11:46.085Z,12.07
2023-01-19T21:13:50.523Z,12.80
2023-01-19T21:15:53.347Z,15.77
2023-01-19T21:17:57.276Z,12.68
2023-01-19T21:20:01.290Z,12.98
2023-01-19T21:22:04.046Z,13.20
2023-01-19T21:24:07.142Z,11.88
2023-01-19T21:26:09.805Z,10.52
2023-01-19T21:28:12.428Z,10.82
2023-01-19T21:30:15.506Z,10.77
2023-01-19T21:32:18.199Z,17.90
2023-01-19T21:34:20.860Z,14.02
2023-01-19T21:36:25.304Z,16.70
2023-01-19T21:38:29.696Z,12.77
2023-01-19T21:40:32.342Z,13.23
2023-01-19T21:42:35.003Z,12.27
2023-01-19T21:44:37.718Z,12.23
2023-01-19T21:46:40.796Z,12.50
2023-01-19T21:48:43.756Z,10.15
2023-01-19T21:50:46.755Z,8.40
2023-01-19T21:52:50.760Z,8.07
2023-01-19T21:54:53.393Z,9.05
2023-01-19T21:56:56.049Z,8.18
2023-01-19T21:59:02.153Z,8.55
2023-01-19T22:01:07.280Z,8.30
2023-01-19T22:03:10.162Z,8.18
2023-01-19T22:05:13.125Z,7.47
2023-01-19T22:07:16.025Z,8.48
2023-01-19T22:09:20.107Z,7.93
2023-01-19T22:11:23.540Z,8.13
2023-01-19T22:13:26.263Z,8.00
2023-01-19T22:15:29.042Z,8.38
2023-01-19T22:17:31.776Z,7.88
2023-01-19T22:19:34.481Z,8.50
2023-01-19T22:21:37.173Z,8.48
2023-01-19T22:23:40.326Z,7.43
2023-01-19T22:25:44.303Z,8.25
2023-01-19T22:27:46.977Z,8.80
2023-01-19T22:29:49.595Z,9.68
2023-01-19T22:31:52.467Z,9.32
2023-01-19T22:33:56.189Z,10.30
2023-01-19T22:36:11.034Z,9.02
2023-01-19T22:38:13.655Z,8.73
2023-01-19T22:40:16.884Z,7.68
2023-01-19T22:42:20.931Z,8.10
2023-01-19T22:44:23.975Z,8.80
2023-01-19T22:46:28.727Z,9.00
2023-01-19T22:48:31.883Z,8.50
2023-01-19T22:50:36.160Z,8.88
2023-01-19T22:52:38.910Z,9.13
2023-01-19T22:54:41.754Z,9.50
2023-01-19T22:56:45.702Z,9.73
2023-01-19T22:58:50.553Z,11.10
2023-01-19T23:00:53.338Z,10.10
2023-01-19T23:02:56.048Z,10.90
2023-01-19T23:04:58.768Z,11.30
2023-01-19T23:07:01.479Z,10.77
2023-01-19T23:09:07.296Z,11.05
2023-01-19T23:11:12.645Z,10.25
2023-01-19T23:13:15.338Z,12.15
2023-01-19T23:15:19.431Z,11.30
2023-01-19T23:17:22.157Z,11.30
2023-01-19T23:19:24.929Z,11.00
2023-01-19T23:21:29.499Z,12.07
2023-01-19T23:23:33.045Z,11.57
2023-01-19T23:25:35.757Z,11.45
2023-01-19T23:27:38.536Z,12.35
2023-01-19T23:29:41.244Z,11.77
2023-01-19T23:31:47.105Z,12.38
2023-01-19T23:33:50.819Z,11.18
2023-01-19T23:35:55.835Z,11.32
2023-01-19T23:37:58.827Z,11.10
2023-01-19T23:40:01.560Z,10.40
2023-01-19T23:42:05.078Z,10.48
2023-01-19T23:44:07.867Z,10.85
2023-01-19T23:46:11.467Z,10.98
2023-01-19T23:48:15.532Z,10.38
2023-01-19T23:50:18.821Z,11.15
2023-01-19T23:52:21.601Z,10.45
2023-01-19T23:54:24.399Z,10.63
2023-01-19T23:56:29.575Z,10.13
2023-01-19T23:58:32.339Z,10.25
